• Join FlightAware (Why Join?)
  • Login
  • US Flag 
03:23PM EDT


 

Airport Tracker/Info


-or-


 

Live Flight TrackerFlight Track Log ✈ EJA122 ✈ 06-Jun-2013 ✈ KSDL - KLAS

Flight Track Log - Related Links

Times and Time Zones

All times are in EDT time to prevent confusion due to time zone crossing. See the EJA122 flight status page for this flight to view local times or setup timezone preferences in your user account.

Time Position Orientation Groundspeed Altitude Reporting Facility
EDT Latitude Longitude Course Direction KTS MPH feet Rate Location/Type
12:35PM 33.6000 -111.9333 303° West 182 209 2,600  Level Phoenix TRACON
12:36PM 33.6392 -112.0050 303° West 231 266 6,300 2,880 Climbing Albuquerque Center
12:37PM 33.7014 -112.0578 325° Northwest 272 313 9,200 2,700 Climbing Albuquerque Center
12:38PM 33.7717 -112.1164 325° Northwest 303 349 11,900 2,160 Climbing Albuquerque Center
12:40PM 33.8489 -112.1808 325° Northwest 333 383 13,800 2,340 Climbing Albuquerque Center
12:41PM 33.9353 -112.2542 325° Northwest 373 429 16,800 2,760 Climbing Albuquerque Center
12:42PM 34.0206 -112.3253 325° Northwest 371 427 19,600 1,560 Climbing Albuquerque Center
12:43PM 34.1128 -112.3864 331° Northwest 377 434 20,100 660 Climbing Albuquerque Center
12:44PM 34.2344 -112.4622 333° Northwest 402 463 21,000 840 Climbing Albuquerque Center
12:45PM 34.3367 -112.5247 333° Northwest 409 471 21,900 480 Climbing Albuquerque Center
12:46PM 34.4383 -112.5897 332° Northwest 411 473 22,000  Climbing Albuquerque Center
12:47PM 34.5483 -112.6575 333° Northwest 425 489 22,000  Level Albuquerque Center
12:48PM 34.6567 -112.7272 332° Northwest 436 502 22,000  Level Albuquerque Center
12:49PM 34.7431 -112.8286 316° Northwest 434 499 22,000  Level Albuquerque Center
12:50PM 34.8167 -112.9794 301° West 431 496 22,000  Level Albuquerque Center
12:51PM 34.8758 -113.1058 300° West 431 496 22,000  Level Albuquerque Center
12:52PM 34.9356 -113.2322 300° West 430 495 22,000  Level Albuquerque Center
12:53PM 34.9939 -113.3572 300° West 428 493 22,000  Level Albuquerque Center
12:53PM 35.0050 -113.3803 300° West 422 486 22,000  Level Los Angeles Center
12:54PM 35.0594 -113.4972 300° West 402 463 22,000  Level Los Angeles Center
12:55PM 35.1233 -113.6325 300° West 389 448 22,000  Level Los Angeles Center
12:56PM 35.1747 -113.7456 299° West 385 443 22,000  Level Los Angeles Center
12:57PM 35.2247 -113.8564 299° West 379 436 22,000  Level Los Angeles Center
12:58PM 35.2892 -113.9575 308° West 379 436 22,000 -600 Level Los Angeles Center
12:59PM 35.3778 -114.0419 322° Northwest 402 463 20,800 -1,680 Descending Los Angeles Center
01:00PM 35.4658 -114.1247 323° Northwest 402 463 18,600 -2,280 Descending Los Angeles Center
01:02PM 35.5650 -114.2178 323° Northwest 382 440 16,200 -2,220 Descending Los Angeles Center
01:02PM 35.6086 -114.2597 322° Northwest 375 432 15,200 -1,860 Descending Los Angeles Center
01:03PM 35.6447 -114.2911 325° Northwest 363 418 14,300 -1,800 Descending Los Angeles Center
01:03PM 35.6931 -114.3369 322° Northwest 358 412 13,200 -1,800 Descending Los Angeles Center
01:04PM 35.7225 -114.3636 324° Northwest 354 407 12,500 -1,500 Descending Los Angeles Center
01:04PM 35.7764 -114.3992 332° Northwest 323 372 11,700 -900 Descending Los Angeles Center
01:05PM 35.8008 -114.4106 339° North 320 368 11,600 -540 Descending Los Angeles Center
01:05PM 35.8542 -114.4367 338° Northwest 297 342 11,200 -600 Descending Los Angeles Center
01:06PM 35.8769 -114.4456 342° North 296 341 11,000 -1,140 Descending Los Angeles Center
01:06PM 35.9239 -114.4689 338° Northwest 296 341 10,200 -1,560 Descending Los Angeles Center
01:07PM 35.9686 -114.4889 340° North 295 339 9,400 -1,380 Descending Los Angeles Center
01:07PM 35.9992 -114.5044 338° Northwest 290 334 8,800 -1,380 Descending Los Angeles Center
01:08PM 36.0364 -114.5308 330° Northwest 284 327 8,000 -840 Descending Los Angeles Center
01:08PM 36.0569 -114.5597 311° West 270 311 8,000 -420 Level Los Angeles Center
01:09PM 36.0886 -114.5983 315° West 272 313 7,600 -900 Descending Los Angeles Center
01:09PM 36.1042 -114.6264 304° West 257 296 7,100 -600 Descending Los Angeles Center
01:10PM 36.1333 -114.6594 318° Northwest 257 296 7,000 -120 Descending Los Angeles Center
01:10PM 36.1392 -114.6972 281° West 238 274 7,000  Level Los Angeles Center
01:11PM 36.1397 -114.7361 271° West 242 278 7,000  Level Los Angeles Center
01:11PM 36.1375 -114.7775 266° West 238 274 7,000  Level Los Angeles Center
01:12PM 36.1353 -114.8186 266° West 240 276 7,000  Level Los Angeles Center
01:12PM 36.1358 -114.8581 271° West 236 272 7,000 -240 Level Los Angeles Center
01:13PM 36.1339 -114.9100 267° West 226 260 6,800 -540 Descending Los Angeles Center
01:13PM 36.1333 -114.9256 267° West 188 216 6,500 -1,080 Descending Los Angeles Center
01:14PM 36.1325 -114.9719 269° West 192 221 5,700 -1,140 Descending Los Angeles Center
01:14PM 36.1342 -114.9892 277° West 187 215 5,400 -1,380 Descending Los Angeles Center
01:15PM 36.1375 -115.0628 273° West 193 222 4,000 -1,140 Descending Los Angeles Center
01:16PM 36.1394 -115.0992 274° West 186 214 3,400 -720 Descending Los Angeles Center
01:17PM 36.1211 -115.1386 240° Southwest 152 175 2,700 -720 Descending Los Angeles Center
01:18PM 36.0883 -115.1597 207° Southwest 138 159 2,000 -720 Descending Los Angeles Center
01:20PM 36.0801 -115.1523 180° South  Level Estimated